Culver, Oregon
Current Conditions -  °F | °C
As of 11:56 PM on Sunday 23 Nov 2014 (Local Time) from KRDM Reporting Station
Clear Clear  
Wind Chill: 32°   Ceiling: Unl
Heat Index: 32°   Visibility: 10mi
Dew Point: 29°   Wind: 3mph
Humidity: 88%   Direction: 140°SE
Pressure: 30.29"   Gusts: NA
Location:  44.53°N, 121.21°W
Report Text: KRDM 240756Z AUTO 14003KT 10SM CLR 00/M02 A3029 RMK AO2 SLP270 T00001017 400941050
Loading
Personal Weather Stations






























Interactive Weather Map New forecast layout! Learn more

10-Day Weather Forecast

Advertisements
Track Severe Weather on mobile